CheckWX is a tool to help pilots better visualize weather data.  It is not intended as a substitute for an official pre-flight weather briefing.

05:41:43 UTC

KASG METAR
Springdale Municipal Airport
Springdale, Arkansas, USA
Current

4 hours ago

KASG 250148Z 30003KT 10SM CLR 15/13 A3000
Observed
Mar-25 @ 01:48 UTC
Wind
  • 300° at 3 KTS
Visibility
10 SM
Flight Rules
VFR
Cloud Levels
  • Clear skies
Temperature
15°C / 59°F
Dewpoint
13°C / 55°F
Humidity
88%
Altimeter
30" Hg
Pressure
1015.92 hPa
Previous

5 hours ago

KASG 250048Z 29007KT 10SM CLR 16/14 A3000
Observed
Mar-25 @ 00:48 UTC
Wind
  • 290° at 7 KTS
Visibility
10 SM
Flight Rules
VFR
Cloud Levels
  • Clear skies
Temperature
16°C / 61°F
Dewpoint
14°C / 57°F
Humidity
88%
Altimeter
30" Hg
Pressure
1015.92 hPa
Previous

6 hours ago

KASG 242348Z 31014KT 10SM SCT026 SCT034 BKN043 18/16 A2998
Observed
Mar-24 @ 23:48 UTC
Wind
  • 310° at 14 KTS
Visibility
10 SM
Flight Rules
VFR
Cloud Levels
  • Scattered at 2,600' AGL
  • Scattered at 3,400' AGL
  • Broken at 4,300' AGL
Temperature
18°C / 64°F
Dewpoint
16°C / 61°F
Humidity
88%
Altimeter
29.98" Hg
Pressure
1015.22 hPa